Meteo Giornale » Osservazioni meteo Stati Uniti (USA) » Farmingdale Republic

ore: 02:53 - Osservazioni Meteo Farmingdale Republic
Lat. 40° 44' N Lon. 73° 25' W Alt. 24 metri s.l.m.

foschia America/New_York

17 °C

Foschia

Temp. 24 Ore

13 °C

23 °C

Nord/Nord-Est

9.3 Km/h

Dew point 16 °C

Umidità 93 %

Visibilità  6 Km

Il sole sorge alle ore 05:22

Il sole tramonta alle ore 20:30

Data e Ora Cielo e Fenomeni T °C DP °C Um. % Pres. hPa Vis. km Vento km/h
Oggi h: 02:53 foschia Foschia 17 16 93 1025 6 N/NE 9.3
Oggi h: 01:53 coperto Coperto 16 14 87 1025 13 NE 11.1
Oggi h: 01:34 coperto Coperto 17 14 82 1026 14 N/NE 13
Oggi h: 00:53 coperto Coperto 16 14 87 1026 14 N/NE 13
Ieri h: 23:53 coperto Coperto 17 13 77 1027 10 N/NE 13
Ieri h: 22:53 coperto Coperto 18 12 67 1027 10 E 11.1
Ieri h: 22:44 coperto Coperto 18 12 67 1027 10 E 9.3
Ieri h: 21:53 coperto Coperto 19 11 59 1027 10 E 11.1
Ieri h: 20:53 coperto Coperto 19 9 52 1027 10 E/SE 9.3
Ieri h: 19:53 sereno Sereno 19 9 52 1027 10 E/SE 14.8
Ieri h: 18:53 sereno Sereno 21 9 46 1027 10 SE 18.5
Ieri h: 17:53 sereno Sereno 21 12 56 1027 10 SE 22.2
Ieri h: 16:53 sereno Sereno 22 10 46 1027 10 E/SE 16.7
Ieri h: 15:53 sereno Sereno 23 9 40 1028 10 SE 16.7
Ieri h: 14:53 sereno Sereno 23 9 40 1029 10 SE 18.5
Ieri h: 13:53 sereno Sereno 23 9 40 1029 10 SE 22.2
Ieri h: 12:53 sereno Sereno 23 11 46 1029 10 SE 18.5
Ieri h: 11:53 sereno Sereno 23 7 35 1029 10 E/SE 20.3
Ieri h: 09:53 sereno Sereno 22 12 53 1029 10 S/SE 11.1
Ieri h: 08:53 sereno Sereno 20 11 56 1029 10 N 0
Ieri h: 07:53 sereno Sereno 19 12 63 1029 10 E 7.4
Ieri h: 06:53 sereno Sereno 16 12 77 1028 10 N 5.5
Ieri h: 05:53 sereno Sereno 13 11 87 1028 10 N/NE 7.4
Ieri h: 04:53 sereno Sereno 14 11 82 1027 10 N 0
Ieri h: 03:53 sereno Sereno 13 10 81 1027 10 N 0